sensor_id;sensor_type;location;lat;lon;timestamp;temperature;humidity
76787;DHT22;65739;51.482;5.702;2022-12-10T00:00:23;-1.40;99.90
76787;DHT22;65739;51.482;5.702;2022-12-10T00:02:56;-1.40;99.90
76787;DHT22;65739;51.482;5.702;2022-12-10T00:05:22;-1.50;99.90
76787;DHT22;65739;51.482;5.702;2022-12-10T00:07:48;-1.50;99.90
76787;DHT22;65739;51.482;5.702;2022-12-10T00:10:14;-1.50;99.90
76787;DHT22;65739;51.482;5.702;2022-12-10T00:12:40;-1.60;99.90
76787;DHT22;65739;51.482;5.702;2022-12-10T00:15:06;-1.60;99.90
76787;DHT22;65739;51.482;5.702;2022-12-10T00:17:32;-1.60;99.90
76787;DHT22;65739;51.482;5.702;2022-12-10T00:19:57;-1.60;99.90
76787;DHT22;65739;51.482;5.702;2022-12-10T00:22:23;-1.70;99.90
76787;DHT22;65739;51.482;5.702;2022-12-10T00:24:49;-1.70;99.90
76787;DHT22;65739;51.482;5.702;2022-12-10T00:27:14;-1.70;99.90
76787;DHT22;65739;51.482;5.702;2022-12-10T00:29:40;-1.80;99.90
76787;DHT22;65739;51.482;5.702;2022-12-10T00:32:06;-1.80;99.90
76787;DHT22;65739;51.482;5.702;2022-12-10T00:34:32;-1.80;99.90
76787;DHT22;65739;51.482;5.702;2022-12-10T00:36:57;-1.80;99.90
76787;DHT22;65739;51.482;5.702;2022-12-10T00:39:23;-1.90;99.90
76787;DHT22;65739;51.482;5.702;2022-12-10T00:41:49;-1.90;99.90
76787;DHT22;65739;51.482;5.702;2022-12-10T00:44:15;-1.90;99.90
76787;DHT22;65739;51.482;5.702;2022-12-10T00:46:41;-2.00;99.90
76787;DHT22;65739;51.482;5.702;2022-12-10T00:49:07;-2.00;99.90
76787;DHT22;65739;51.482;5.702;2022-12-10T00:51:32;-2.00;99.90
76787;DHT22;65739;51.482;5.702;2022-12-10T00:53:58;-2.00;99.90
76787;DHT22;65739;51.482;5.702;2022-12-10T00:56:27;-2.10;99.90
76787;DHT22;65739;51.482;5.702;2022-12-10T00:58:54;-2.00;99.90
76787;DHT22;65739;51.482;5.702;2022-12-10T01:01:26;-2.10;99.90
76787;DHT22;65739;51.482;5.702;2022-12-10T01:03:57;-2.00;99.90
76787;DHT22;65739;51.482;5.702;2022-12-10T01:06:25;-2.10;99.90
76787;DHT22;65739;51.482;5.702;2022-12-10T01:08:53;-2.10;99.90
76787;DHT22;65739;51.482;5.702;2022-12-10T01:11:22;-2.00;99.90
76787;DHT22;65739;51.482;5.702;2022-12-10T01:13:51;-2.10;99.90
76787;DHT22;65739;51.482;5.702;2022-12-10T01:16:18;-2.10;99.90
76787;DHT22;65739;51.482;5.702;2022-12-10T01:18:45;-2.10;99.90
76787;DHT22;65739;51.482;5.702;2022-12-10T01:21:13;-2.10;99.90
76787;DHT22;65739;51.482;5.702;2022-12-10T01:23:41;-2.20;99.90
76787;DHT22;65739;51.482;5.702;2022-12-10T01:26:11;-2.20;99.90
76787;DHT22;65739;51.482;5.702;2022-12-10T01:28:39;-2.20;99.90
76787;DHT22;65739;51.482;5.702;2022-12-10T01:31:08;-2.20;99.90
76787;DHT22;65739;51.482;5.702;2022-12-10T01:33:35;-2.20;99.90
76787;DHT22;65739;51.482;5.702;2022-12-10T01:36:11;-2.20;99.90
76787;DHT22;65739;51.482;5.702;2022-12-10T01:38:38;-2.20;99.90
76787;DHT22;65739;51.482;5.702;2022-12-10T01:41:04;-2.30;99.90
76787;DHT22;65739;51.482;5.702;2022-12-10T01:46:17;-2.20;99.90
76787;DHT22;65739;51.482;5.702;2022-12-10T01:48:43;-2.10;99.90
76787;DHT22;65739;51.482;5.702;2022-12-10T01:51:10;-2.10;99.90
76787;DHT22;65739;51.482;5.702;2022-12-10T01:53:37;-2.10;99.90
76787;DHT22;65739;51.482;5.702;2022-12-10T01:56:02;-2.00;99.90
76787;DHT22;65739;51.482;5.702;2022-12-10T01:58:28;-2.00;99.90
76787;DHT22;65739;51.482;5.702;2022-12-10T02:03:32;-2.10;99.90
76787;DHT22;65739;51.482;5.702;2022-12-10T02:06:17;-2.10;99.90
76787;DHT22;65739;51.482;5.702;2022-12-10T02:09:04;-2.10;99.90
76787;DHT22;65739;51.482;5.702;2022-12-10T02:14:54;-2.10;99.90
76787;DHT22;65739;51.482;5.702;2022-12-10T02:19:57;-2.10;99.90
76787;DHT22;65739;51.482;5.702;2022-12-10T02:22:27;-2.10;99.90
76787;DHT22;65739;51.482;5.702;2022-12-10T02:24:54;-2.10;99.90
76787;DHT22;65739;51.482;5.702;2022-12-10T02:30:11;-2.00;99.90
76787;DHT22;65739;51.482;5.702;2022-12-10T02:32:39;-2.00;99.90
76787;DHT22;65739;51.482;5.702;2022-12-10T02:35:14;-1.90;99.90
76787;DHT22;65739;51.482;5.702;2022-12-10T02:37:51;-1.90;99.90
76787;DHT22;65739;51.482;5.702;2022-12-10T02:40:32;-1.70;99.90
76787;DHT22;65739;51.482;5.702;2022-12-10T02:42:59;-1.60;99.90
76787;DHT22;65739;51.482;5.702;2022-12-10T02:45:27;-1.60;99.90
76787;DHT22;65739;51.482;5.702;2022-12-10T02:47:57;-1.50;99.90
76787;DHT22;65739;51.482;5.702;2022-12-10T02:50:24;-1.50;99.90
76787;DHT22;65739;51.482;5.702;2022-12-10T02:52:50;-1.40;99.90
76787;DHT22;65739;51.482;5.702;2022-12-10T02:55:17;-1.40;99.90
76787;DHT22;65739;51.482;5.702;2022-12-10T02:58:05;-1.30;99.90
76787;DHT22;65739;51.482;5.702;2022-12-10T03:00:32;-1.30;99.90
76787;DHT22;65739;51.482;5.702;2022-12-10T03:11:13;-1.30;99.90
76787;DHT22;65739;51.482;5.702;2022-12-10T03:13:47;-1.30;99.90
76787;DHT22;65739;51.482;5.702;2022-12-10T03:16:21;-1.20;99.90
76787;DHT22;65739;51.482;5.702;2022-12-10T03:18:52;-1.30;99.90
76787;DHT22;65739;51.482;5.702;2022-12-10T03:21:22;-1.20;99.90
76787;DHT22;65739;51.482;5.702;2022-12-10T03:23:48;-1.20;99.90
76787;DHT22;65739;51.482;5.702;2022-12-10T03:26:18;-1.20;99.90
76787;DHT22;65739;51.482;5.702;2022-12-10T03:28:46;-1.20;99.90
76787;DHT22;65739;51.482;5.702;2022-12-10T03:31:15;-1.20;99.90
76787;DHT22;65739;51.482;5.702;2022-12-10T03:33:41;-1.20;99.90
76787;DHT22;65739;51.482;5.702;2022-12-10T03:36:08;-1.20;99.90
76787;DHT22;65739;51.482;5.702;2022-12-10T03:38:39;-1.10;99.90
76787;DHT22;65739;51.482;5.702;2022-12-10T03:41:09;-1.10;99.90
76787;DHT22;65739;51.482;5.702;2022-12-10T03:43:35;-1.10;99.90
76787;DHT22;65739;51.482;5.702;2022-12-10T03:46:01;-1.10;99.90
76787;DHT22;65739;51.482;5.702;2022-12-10T03:48:27;-1.10;99.90
76787;DHT22;65739;51.482;5.702;2022-12-10T03:50:53;-1.10;99.90
76787;DHT22;65739;51.482;5.702;2022-12-10T03:53:18;-1.10;99.90
76787;DHT22;65739;51.482;5.702;2022-12-10T03:55:44;-1.10;99.90
76787;DHT22;65739;51.482;5.702;2022-12-10T03:58:10;-1.00;99.90
76787;DHT22;65739;51.482;5.702;2022-12-10T04:00:44;-0.90;99.90
76787;DHT22;65739;51.482;5.702;2022-12-10T04:03:10;-0.90;99.90
76787;DHT22;65739;51.482;5.702;2022-12-10T04:05:36;-0.90;99.90
76787;DHT22;65739;51.482;5.702;2022-12-10T04:08:03;-0.90;99.90
76787;DHT22;65739;51.482;5.702;2022-12-10T04:10:28;-0.80;99.90
76787;DHT22;65739;51.482;5.702;2022-12-10T04:12:54;-0.80;99.90
76787;DHT22;65739;51.482;5.702;2022-12-10T04:15:39;-0.80;99.90
76787;DHT22;65739;51.482;5.702;2022-12-10T04:18:23;-0.80;99.90
76787;DHT22;65739;51.482;5.702;2022-12-10T04:20:49;-0.80;99.90
76787;DHT22;65739;51.482;5.702;2022-12-10T04:23:33;-0.80;99.90
76787;DHT22;65739;51.482;5.702;2022-12-10T04:26:17;-0.80;99.90
76787;DHT22;65739;51.482;5.702;2022-12-10T04:29:11;-0.80;99.90
76787;DHT22;65739;51.482;5.702;2022-12-10T04:31:38;-0.80;99.90
76787;DHT22;65739;51.482;5.702;2022-12-10T04:34:04;-0.70;99.90
76787;DHT22;65739;51.482;5.702;2022-12-10T04:36:29;-0.70;99.90
76787;DHT22;65739;51.482;5.702;2022-12-10T04:38:55;-0.70;99.90
76787;DHT22;65739;51.482;5.702;2022-12-10T04:41:21;-0.80;99.90
76787;DHT22;65739;51.482;5.702;2022-12-10T04:43:47;-0.80;99.90
76787;DHT22;65739;51.482;5.702;2022-12-10T04:46:13;-0.70;99.90
76787;DHT22;65739;51.482;5.702;2022-12-10T04:48:38;-0.70;99.90
76787;DHT22;65739;51.482;5.702;2022-12-10T04:51:04;-0.70;99.90
76787;DHT22;65739;51.482;5.702;2022-12-10T04:53:31;-0.70;99.90
76787;DHT22;65739;51.482;5.702;2022-12-10T04:56:17;-0.70;99.90
76787;DHT22;65739;51.482;5.702;2022-12-10T04:58:43;-0.70;99.90
76787;DHT22;65739;51.482;5.702;2022-12-10T05:01:31;-0.70;99.90
76787;DHT22;65739;51.482;5.702;2022-12-10T05:04:02;-0.60;99.90
76787;DHT22;65739;51.482;5.702;2022-12-10T05:06:28;-0.60;99.90
76787;DHT22;65739;51.482;5.702;2022-12-10T05:08:58;-0.70;99.90
76787;DHT22;65739;51.482;5.702;2022-12-10T05:11:26;-0.70;99.90
76787;DHT22;65739;51.482;5.702;2022-12-10T05:13:56;-0.70;99.90
76787;DHT22;65739;51.482;5.702;2022-12-10T05:16:25;-0.80;99.90
76787;DHT22;65739;51.482;5.702;2022-12-10T05:18:52;-0.80;99.90
76787;DHT22;65739;51.482;5.702;2022-12-10T05:21:19;-0.80;99.90
76787;DHT22;65739;51.482;5.702;2022-12-10T05:23:48;-0.80;99.90
76787;DHT22;65739;51.482;5.702;2022-12-10T05:26:20;-0.70;99.90
76787;DHT22;65739;51.482;5.702;2022-12-10T05:28:54;-0.70;99.90
76787;DHT22;65739;51.482;5.702;2022-12-10T05:31:26;-0.80;99.90
76787;DHT22;65739;51.482;5.702;2022-12-10T05:33:53;-0.80;99.90
76787;DHT22;65739;51.482;5.702;2022-12-10T05:36:22;-0.90;99.90
76787;DHT22;65739;51.482;5.702;2022-12-10T05:38:51;-0.90;99.90
76787;DHT22;65739;51.482;5.702;2022-12-10T05:41:22;-0.90;99.90
76787;DHT22;65739;51.482;5.702;2022-12-10T05:43:48;-0.90;99.90
76787;DHT22;65739;51.482;5.702;2022-12-10T05:46:17;-0.80;99.90
76787;DHT22;65739;51.482;5.702;2022-12-10T05:48:43;-0.80;99.90
76787;DHT22;65739;51.482;5.702;2022-12-10T05:51:11;-0.70;99.90
76787;DHT22;65739;51.482;5.702;2022-12-10T05:53:40;-0.70;99.90
76787;DHT22;65739;51.482;5.702;2022-12-10T05:56:10;-0.70;99.90
76787;DHT22;65739;51.482;5.702;2022-12-10T05:58:38;-0.60;99.90
76787;DHT22;65739;51.482;5.702;2022-12-10T06:01:13;-0.70;99.90
76787;DHT22;65739;51.482;5.702;2022-12-10T06:03:42;-0.70;99.90
76787;DHT22;65739;51.482;5.702;2022-12-10T06:06:08;-0.70;99.90
76787;DHT22;65739;51.482;5.702;2022-12-10T06:08:37;-0.70;99.90
76787;DHT22;65739;51.482;5.702;2022-12-10T06:11:08;-0.70;99.90
76787;DHT22;65739;51.482;5.702;2022-12-10T06:13:37;-0.70;99.90
76787;DHT22;65739;51.482;5.702;2022-12-10T06:16:11;-0.70;99.90
76787;DHT22;65739;51.482;5.702;2022-12-10T06:18:37;-0.70;99.90
76787;DHT22;65739;51.482;5.702;2022-12-10T06:21:09;-0.70;99.90
76787;DHT22;65739;51.482;5.702;2022-12-10T06:23:36;-0.70;99.90
76787;DHT22;65739;51.482;5.702;2022-12-10T06:26:07;-0.70;99.90
76787;DHT22;65739;51.482;5.702;2022-12-10T06:28:33;-0.70;99.90
76787;DHT22;65739;51.482;5.702;2022-12-10T06:31:02;-0.70;99.90
76787;DHT22;65739;51.482;5.702;2022-12-10T06:33:28;-0.70;99.90
76787;DHT22;65739;51.482;5.702;2022-12-10T06:35:54;-0.60;99.90
76787;DHT22;65739;51.482;5.702;2022-12-10T06:38:20;-0.60;99.90
76787;DHT22;65739;51.482;5.702;2022-12-10T06:40:45;-0.60;99.90
76787;DHT22;65739;51.482;5.702;2022-12-10T06:43:11;-0.50;99.90
76787;DHT22;65739;51.482;5.702;2022-12-10T06:45:41;-0.50;99.90
76787;DHT22;65739;51.482;5.702;2022-12-10T06:48:07;-0.60;99.90
76787;DHT22;65739;51.482;5.702;2022-12-10T06:50:34;-0.70;99.90
76787;DHT22;65739;51.482;5.702;2022-12-10T06:53:00;-0.80;99.90
76787;DHT22;65739;51.482;5.702;2022-12-10T06:55:25;-0.90;99.90
76787;DHT22;65739;51.482;5.702;2022-12-10T06:57:52;-0.90;99.90
76787;DHT22;65739;51.482;5.702;2022-12-10T07:00:19;-0.90;99.90
76787;DHT22;65739;51.482;5.702;2022-12-10T07:02:45;-0.90;99.90
76787;DHT22;65739;51.482;5.702;2022-12-10T07:05:13;-0.90;99.90
76787;DHT22;65739;51.482;5.702;2022-12-10T07:07:42;-0.90;99.90
76787;DHT22;65739;51.482;5.702;2022-12-10T07:10:08;-0.90;99.90
76787;DHT22;65739;51.482;5.702;2022-12-10T07:12:34;-1.00;99.90
76787;DHT22;65739;51.482;5.702;2022-12-10T07:15:00;-1.00;99.90
76787;DHT22;65739;51.482;5.702;2022-12-10T07:17:26;-1.10;99.90
76787;DHT22;65739;51.482;5.702;2022-12-10T07:19:51;-1.00;99.90
76787;DHT22;65739;51.482;5.702;2022-12-10T07:22:17;-0.90;99.90
76787;DHT22;65739;51.482;5.702;2022-12-10T07:24:43;-0.90;99.90
76787;DHT22;65739;51.482;5.702;2022-12-10T07:27:09;-1.00;99.90
76787;DHT22;65739;51.482;5.702;2022-12-10T07:29:35;-0.90;99.90
76787;DHT22;65739;51.482;5.702;2022-12-10T07:32:00;-0.90;99.90
76787;DHT22;65739;51.482;5.702;2022-12-10T07:34:26;-1.00;99.90
76787;DHT22;65739;51.482;5.702;2022-12-10T07:36:52;-1.00;99.90
76787;DHT22;65739;51.482;5.702;2022-12-10T07:39:20;-0.90;99.90
76787;DHT22;65739;51.482;5.702;2022-12-10T07:41:51;-0.90;99.90
76787;DHT22;65739;51.482;5.702;2022-12-10T07:44:22;-0.90;99.90
76787;DHT22;65739;51.482;5.702;2022-12-10T07:46:49;-0.90;99.90
76787;DHT22;65739;51.482;5.702;2022-12-10T07:49:15;-0.90;99.90
76787;DHT22;65739;51.482;5.702;2022-12-10T07:51:49;-1.00;99.90
76787;DHT22;65739;51.482;5.702;2022-12-10T07:54:15;-1.00;99.90
76787;DHT22;65739;51.482;5.702;2022-12-10T07:56:41;-0.60;99.90
76787;DHT22;65739;51.482;5.702;2022-12-10T07:59:06;-1.10;99.90
76787;DHT22;65739;51.482;5.702;2022-12-10T08:01:33;-1.10;99.90
76787;DHT22;65739;51.482;5.702;2022-12-10T08:03:58;-1.20;99.90
76787;DHT22;65739;51.482;5.702;2022-12-10T08:06:26;-1.10;99.90
76787;DHT22;65739;51.482;5.702;2022-12-10T08:08:52;-1.00;99.90
76787;DHT22;65739;51.482;5.702;2022-12-10T08:11:20;-1.00;99.90
76787;DHT22;65739;51.482;5.702;2022-12-10T08:13:46;-1.00;99.90
76787;DHT22;65739;51.482;5.702;2022-12-10T08:16:15;-1.00;99.90
76787;DHT22;65739;51.482;5.702;2022-12-10T08:18:42;-1.00;99.90
76787;DHT22;65739;51.482;5.702;2022-12-10T08:21:14;-1.00;99.90
76787;DHT22;65739;51.482;5.702;2022-12-10T08:23:40;-1.00;99.90
76787;DHT22;65739;51.482;5.702;2022-12-10T08:26:31;-1.00;99.90
76787;DHT22;65739;51.482;5.702;2022-12-10T08:28:58;-1.10;99.90
76787;DHT22;65739;51.482;5.702;2022-12-10T08:31:25;-1.10;99.90
76787;DHT22;65739;51.482;5.702;2022-12-10T08:33:52;-1.10;99.90
76787;DHT22;65739;51.482;5.702;2022-12-10T08:36:19;-1.20;99.90
76787;DHT22;65739;51.482;5.702;2022-12-10T08:38:45;-1.20;99.90
76787;DHT22;65739;51.482;5.702;2022-12-10T08:41:19;-1.10;99.90
76787;DHT22;65739;51.482;5.702;2022-12-10T08:43:46;-1.10;99.90
76787;DHT22;65739;51.482;5.702;2022-12-10T08:46:13;-1.10;99.90
76787;DHT22;65739;51.482;5.702;2022-12-10T08:48:39;-1.00;99.90
76787;DHT22;65739;51.482;5.702;2022-12-10T08:51:06;-0.90;99.90
76787;DHT22;65739;51.482;5.702;2022-12-10T08:53:33;-0.90;99.90
76787;DHT22;65739;51.482;5.702;2022-12-10T08:55:59;-0.70;99.90
76787;DHT22;65739;51.482;5.702;2022-12-10T08:58:24;-0.80;99.90
76787;DHT22;65739;51.482;5.702;2022-12-10T09:00:50;-0.80;99.90
76787;DHT22;65739;51.482;5.702;2022-12-10T09:03:16;-0.70;99.90
76787;DHT22;65739;51.482;5.702;2022-12-10T09:05:42;-0.70;99.90
76787;DHT22;65739;51.482;5.702;2022-12-10T09:08:08;-0.60;99.90
76787;DHT22;65739;51.482;5.702;2022-12-10T09:10:36;-0.60;99.90
76787;DHT22;65739;51.482;5.702;2022-12-10T09:13:02;-0.60;99.90
76787;DHT22;65739;51.482;5.702;2022-12-10T09:15:28;-0.60;99.90
76787;DHT22;65739;51.482;5.702;2022-12-10T09:17:54;-0.50;99.90
76787;DHT22;65739;51.482;5.702;2022-12-10T09:20:20;-0.50;99.90
76787;DHT22;65739;51.482;5.702;2022-12-10T09:22:45;-0.50;99.90
76787;DHT22;65739;51.482;5.702;2022-12-10T09:25:11;-0.40;99.90
76787;DHT22;65739;51.482;5.702;2022-12-10T09:27:40;-0.40;99.90
76787;DHT22;65739;51.482;5.702;2022-12-10T09:30:16;-0.40;99.90
76787;DHT22;65739;51.482;5.702;2022-12-10T09:32:42;-0.50;99.90
76787;DHT22;65739;51.482;5.702;2022-12-10T09:35:08;-0.50;99.90
76787;DHT22;65739;51.482;5.702;2022-12-10T09:37:33;-0.50;99.90
76787;DHT22;65739;51.482;5.702;2022-12-10T09:39:59;-0.60;99.90
76787;DHT22;65739;51.482;5.702;2022-12-10T09:42:42;-0.70;99.90
76787;DHT22;65739;51.482;5.702;2022-12-10T09:45:19;-0.70;99.90
76787;DHT22;65739;51.482;5.702;2022-12-10T09:48:04;-0.70;99.90
76787;DHT22;65739;51.482;5.702;2022-12-10T09:53:21;-0.50;99.90
76787;DHT22;65739;51.482;5.702;2022-12-10T09:55:50;-0.40;99.90
76787;DHT22;65739;51.482;5.702;2022-12-10T09:58:21;-0.40;99.90
76787;DHT22;65739;51.482;5.702;2022-12-10T10:00:58;-0.40;99.90
76787;DHT22;65739;51.482;5.702;2022-12-10T10:03:25;-0.40;99.90
76787;DHT22;65739;51.482;5.702;2022-12-10T10:05:53;-0.50;99.90
76787;DHT22;65739;51.482;5.702;2022-12-10T10:10:52;-0.40;99.90
76787;DHT22;65739;51.482;5.702;2022-12-10T10:15:56;-0.30;99.90
76787;DHT22;65739;51.482;5.702;2022-12-10T10:18:36;-0.40;99.90
76787;DHT22;65739;51.482;5.702;2022-12-10T10:21:55;-0.50;99.90
76787;DHT22;65739;51.482;5.702;2022-12-10T10:24:22;-0.50;99.90
76787;DHT22;65739;51.482;5.702;2022-12-10T10:26:52;-0.40;99.90
76787;DHT22;65739;51.482;5.702;2022-12-10T10:29:20;-0.20;99.90
76787;DHT22;65739;51.482;5.702;2022-12-10T10:31:47;-0.20;99.90
76787;DHT22;65739;51.482;5.702;2022-12-10T10:34:18;-0.20;99.90
76787;DHT22;65739;51.482;5.702;2022-12-10T10:36:45;-0.20;99.90
76787;DHT22;65739;51.482;5.702;2022-12-10T10:41:45;-0.40;99.90
76787;DHT22;65739;51.482;5.702;2022-12-10T10:44:27;-0.40;99.90
76787;DHT22;65739;51.482;5.702;2022-12-10T10:46:55;-0.50;99.90
76787;DHT22;65739;51.482;5.702;2022-12-10T10:49:25;-0.50;99.90
76787;DHT22;65739;51.482;5.702;2022-12-10T10:51:57;-0.40;99.90
76787;DHT22;65739;51.482;5.702;2022-12-10T10:54:42;-0.30;99.90
76787;DHT22;65739;51.482;5.702;2022-12-10T10:57:54;-0.30;99.90
76787;DHT22;65739;51.482;5.702;2022-12-10T11:00:10;-0.10;99.90
76787;DHT22;65739;51.482;5.702;2022-12-10T11:02:43;-0.20;99.90
76787;DHT22;65739;51.482;5.702;2022-12-10T11:05:18;-0.20;99.90
76787;DHT22;65739;51.482;5.702;2022-12-10T11:07:45;-0.20;99.90
76787;DHT22;65739;51.482;5.702;2022-12-10T11:10:19;-0.20;99.90
76787;DHT22;65739;51.482;5.702;2022-12-10T11:12:55;-0.30;99.90
76787;DHT22;65739;51.482;5.702;2022-12-10T11:17:49;-0.30;99.90
76787;DHT22;65739;51.482;5.702;2022-12-10T11:23:10;-0.30;99.90
76787;DHT22;65739;51.482;5.702;2022-12-10T11:26:04;-0.30;99.90
76787;DHT22;65739;51.482;5.702;2022-12-10T11:29:01;-0.20;99.90
76787;DHT22;65739;51.482;5.702;2022-12-10T11:32:05;0.00;99.90
76787;DHT22;65739;51.482;5.702;2022-12-10T11:57:35;-0.10;99.90
76787;DHT22;65739;51.482;5.702;2022-12-10T12:00:19;0.00;99.90
76787;DHT22;65739;51.482;5.702;2022-12-10T12:16:15;0.10;99.90
76787;DHT22;65739;51.482;5.702;2022-12-10T12:18:51;0.10;99.90
76787;DHT22;65739;51.482;5.702;2022-12-10T12:21:20;0.30;99.90
76787;DHT22;65739;51.482;5.702;2022-12-10T12:23:49;0.40;99.90
76787;DHT22;65739;51.482;5.702;2022-12-10T12:37:12;0.20;99.90
76787;DHT22;65739;51.482;5.702;2022-12-10T12:43:02;0.10;99.90
76787;DHT22;65739;51.482;5.702;2022-12-10T12:45:34;0.20;99.90
76787;DHT22;65739;51.482;5.702;2022-12-10T12:48:25;0.20;99.90
76787;DHT22;65739;51.482;5.702;2022-12-10T12:53:34;0.30;99.90
76787;DHT22;65739;51.482;5.702;2022-12-10T12:56:17;0.40;99.90
76787;DHT22;65739;51.482;5.702;2022-12-10T13:02:02;0.40;99.90
76787;DHT22;65739;51.482;5.702;2022-12-10T13:04:30;0.50;99.90
76787;DHT22;65739;51.482;5.702;2022-12-10T13:12:50;0.30;99.90
76787;DHT22;65739;51.482;5.702;2022-12-10T13:15:43;0.30;99.90
76787;DHT22;65739;51.482;5.702;2022-12-10T13:24:08;0.20;99.90
76787;DHT22;65739;51.482;5.702;2022-12-10T13:27:01;0.30;99.90
76787;DHT22;65739;51.482;5.702;2022-12-10T13:35:30;0.20;99.90
76787;DHT22;65739;51.482;5.702;2022-12-10T13:38:25;0.30;99.90
76787;DHT22;65739;51.482;5.702;2022-12-10T13:41:13;0.20;99.90
76787;DHT22;65739;51.482;5.702;2022-12-10T13:44:24;0.20;99.90
76787;DHT22;65739;51.482;5.702;2022-12-10T13:59:28;0.10;99.90
76787;DHT22;65739;51.482;5.702;2022-12-10T14:05:26;0.20;99.90
76787;DHT22;65739;51.482;5.702;2022-12-10T14:08:34;0.10;99.90
76787;DHT22;65739;51.482;5.702;2022-12-10T14:11:18;0.10;99.90
76787;DHT22;65739;51.482;5.702;2022-12-10T14:13:53;0.10;99.90
76787;DHT22;65739;51.482;5.702;2022-12-10T14:16:24;0.10;99.90
76787;DHT22;65739;51.482;5.702;2022-12-10T14:19:05;0.10;99.90
76787;DHT22;65739;51.482;5.702;2022-12-10T14:21:35;0.20;99.90
76787;DHT22;65739;51.482;5.702;2022-12-10T14:24:03;0.10;99.90
76787;DHT22;65739;51.482;5.702;2022-12-10T14:38:03;0.20;99.90
76787;DHT22;65739;51.482;5.702;2022-12-10T14:40:44;0.20;99.90
76787;DHT22;65739;51.482;5.702;2022-12-10T14:43:41;0.20;99.90
76787;DHT22;65739;51.482;5.702;2022-12-10T14:46:24;0.20;99.90
76787;DHT22;65739;51.482;5.702;2022-12-10T14:49:21;0.20;99.90
76787;DHT22;65739;51.482;5.702;2022-12-10T15:01:56;0.20;99.90
76787;DHT22;65739;51.482;5.702;2022-12-10T15:04:43;0.10;99.90
76787;DHT22;65739;51.482;5.702;2022-12-10T15:07:32;0.10;99.90
76787;DHT22;65739;51.482;5.702;2022-12-10T15:10:16;0.10;99.90
76787;DHT22;65739;51.482;5.702;2022-12-10T15:13:07;0.10;99.90
76787;DHT22;65739;51.482;5.702;2022-12-10T15:15:39;0.00;99.90
76787;DHT22;65739;51.482;5.702;2022-12-10T15:21:22;0.10;99.90
76787;DHT22;65739;51.482;5.702;2022-12-10T15:24:34;0.10;99.90
76787;DHT22;65739;51.482;5.702;2022-12-10T15:27:22;0.10;99.90
76787;DHT22;65739;51.482;5.702;2022-12-10T15:30:43;0.10;99.90
76787;DHT22;65739;51.482;5.702;2022-12-10T15:33:36;0.10;99.90
76787;DHT22;65739;51.482;5.702;2022-12-10T15:36:34;0.20;99.90
76787;DHT22;65739;51.482;5.702;2022-12-10T15:42:08;0.20;99.90
76787;DHT22;65739;51.482;5.702;2022-12-10T15:44:49;0.20;99.90
76787;DHT22;65739;51.482;5.702;2022-12-10T15:47:34;0.20;99.90
76787;DHT22;65739;51.482;5.702;2022-12-10T15:50:08;0.20;99.90
76787;DHT22;65739;51.482;5.702;2022-12-10T15:52:36;0.20;99.90
76787;DHT22;65739;51.482;5.702;2022-12-10T15:55:12;0.20;99.90
76787;DHT22;65739;51.482;5.702;2022-12-10T15:57:39;0.20;99.90
76787;DHT22;65739;51.482;5.702;2022-12-10T16:00:25;0.20;99.90
76787;DHT22;65739;51.482;5.702;2022-12-10T16:02:58;0.10;99.90
76787;DHT22;65739;51.482;5.702;2022-12-10T16:05:43;0.00;99.90
76787;DHT22;65739;51.482;5.702;2022-12-10T16:08:35;0.10;99.90
76787;DHT22;65739;51.482;5.702;2022-12-10T16:11:06;0.10;99.90
76787;DHT22;65739;51.482;5.702;2022-12-10T16:13:52;0.10;99.90
76787;DHT22;65739;51.482;5.702;2022-12-10T16:16:38;0.10;99.90
76787;DHT22;65739;51.482;5.702;2022-12-10T16:19:26;0.10;99.90
76787;DHT22;65739;51.482;5.702;2022-12-10T16:21:52;0.10;99.90
76787;DHT22;65739;51.482;5.702;2022-12-10T16:24:33;0.10;99.90
76787;DHT22;65739;51.482;5.702;2022-12-10T16:27:10;0.10;99.90
76787;DHT22;65739;51.482;5.702;2022-12-10T16:29:36;0.10;99.90
76787;DHT22;65739;51.482;5.702;2022-12-10T16:32:09;0.10;99.90
76787;DHT22;65739;51.482;5.702;2022-12-10T16:34:38;0.20;99.90
76787;DHT22;65739;51.482;5.702;2022-12-10T16:37:08;0.20;99.90
76787;DHT22;65739;51.482;5.702;2022-12-10T16:39:38;0.10;99.90
76787;DHT22;65739;51.482;5.702;2022-12-10T16:45:36;0.00;99.90
76787;DHT22;65739;51.482;5.702;2022-12-10T16:48:14;0.00;99.90
76787;DHT22;65739;51.482;5.702;2022-12-10T16:50:52;0.10;99.90
76787;DHT22;65739;51.482;5.702;2022-12-10T16:53:46;0.10;99.90
76787;DHT22;65739;51.482;5.702;2022-12-10T16:56:18;0.20;99.90
76787;DHT22;65739;51.482;5.702;2022-12-10T16:58:52;0.20;99.90
76787;DHT22;65739;51.482;5.702;2022-12-10T17:01:35;0.10;99.90
76787;DHT22;65739;51.482;5.702;2022-12-10T17:04:16;0.10;99.90
76787;DHT22;65739;51.482;5.702;2022-12-10T17:06:53;0.20;99.90
76787;DHT22;65739;51.482;5.702;2022-12-10T17:09:39;0.20;99.90
76787;DHT22;65739;51.482;5.702;2022-12-10T17:12:09;0.20;99.90
76787;DHT22;65739;51.482;5.702;2022-12-10T17:14:50;0.20;99.90
76787;DHT22;65739;51.482;5.702;2022-12-10T17:17:18;0.30;99.90
76787;DHT22;65739;51.482;5.702;2022-12-10T17:20:02;0.20;99.90
76787;DHT22;65739;51.482;5.702;2022-12-10T17:29:37;0.20;99.90
76787;DHT22;65739;51.482;5.702;2022-12-10T17:35:46;0.20;99.90
76787;DHT22;65739;51.482;5.702;2022-12-10T17:38:28;0.30;99.90
76787;DHT22;65739;51.482;5.702;2022-12-10T17:41:07;0.30;99.90
76787;DHT22;65739;51.482;5.702;2022-12-10T18:02:46;0.30;99.90
76787;DHT22;65739;51.482;5.702;2022-12-10T18:05:32;0.30;99.90
76787;DHT22;65739;51.482;5.702;2022-12-10T18:12:36;0.30;99.90
76787;DHT22;65739;51.482;5.702;2022-12-10T18:15:27;0.20;99.90
76787;DHT22;65739;51.482;5.702;2022-12-10T18:18:14;0.20;99.90
76787;DHT22;65739;51.482;5.702;2022-12-10T18:20:57;0.20;99.90
76787;DHT22;65739;51.482;5.702;2022-12-10T18:23:36;0.20;99.90
76787;DHT22;65739;51.482;5.702;2022-12-10T18:26:32;0.20;99.90
76787;DHT22;65739;51.482;5.702;2022-12-10T18:29:05;0.30;99.90
76787;DHT22;65739;51.482;5.702;2022-12-10T18:31:34;0.20;99.90
76787;DHT22;65739;51.482;5.702;2022-12-10T18:34:06;0.30;99.90
76787;DHT22;65739;51.482;5.702;2022-12-10T18:36:35;0.20;99.90
76787;DHT22;65739;51.482;5.702;2022-12-10T18:39:14;0.20;99.90
76787;DHT22;65739;51.482;5.702;2022-12-10T18:41:40;0.30;99.90
76787;DHT22;65739;51.482;5.702;2022-12-10T18:44:06;0.30;99.90
76787;DHT22;65739;51.482;5.702;2022-12-10T18:46:33;0.40;99.90
76787;DHT22;65739;51.482;5.702;2022-12-10T18:49:01;0.40;99.90
76787;DHT22;65739;51.482;5.702;2022-12-10T18:51:27;0.40;99.90
76787;DHT22;65739;51.482;5.702;2022-12-10T18:53:53;0.50;99.90
76787;DHT22;65739;51.482;5.702;2022-12-10T18:56:23;0.40;99.90
76787;DHT22;65739;51.482;5.702;2022-12-10T18:58:49;0.40;99.90
76787;DHT22;65739;51.482;5.702;2022-12-10T19:01:17;0.40;99.90
76787;DHT22;65739;51.482;5.702;2022-12-10T19:03:43;0.40;99.90
76787;DHT22;65739;51.482;5.702;2022-12-10T19:06:14;0.30;99.90
76787;DHT22;65739;51.482;5.702;2022-12-10T19:08:41;0.30;99.90
76787;DHT22;65739;51.482;5.702;2022-12-10T19:11:07;0.30;99.90
76787;DHT22;65739;51.482;5.702;2022-12-10T19:13:33;0.30;99.90
76787;DHT22;65739;51.482;5.702;2022-12-10T19:15:59;0.30;99.90
76787;DHT22;65739;51.482;5.702;2022-12-10T19:18:27;0.40;99.90